createdAt,value
2017-12-11T00:00:36.319Z,9.90
2017-12-11T00:02:29.566Z,11.30
2017-12-11T00:03:29.491Z,10.60
2017-12-11T00:05:22.761Z,12.00
2017-12-11T00:06:22.667Z,10.90
2017-12-11T00:08:15.914Z,10.30
2017-12-11T00:09:15.844Z,11.20
2017-12-11T00:11:09.107Z,10.30
2017-12-11T00:12:09.013Z,10.10
2017-12-11T00:14:02.279Z,10.90
2017-12-11T00:15:02.188Z,10.10
2017-12-11T00:16:55.429Z,10.40
2017-12-11T00:17:55.355Z,10.70
2017-12-11T00:19:48.611Z,11.80
2017-12-11T00:20:48.519Z,11.00
2017-12-11T00:22:41.767Z,11.00
2017-12-11T00:23:41.692Z,11.40
2017-12-11T00:25:34.959Z,10.40
2017-12-11T00:26:34.866Z,10.40
2017-12-11T00:28:28.114Z,9.40
2017-12-11T00:29:28.039Z,10.00
2017-12-11T00:31:21.304Z,11.00
2017-12-11T00:32:21.213Z,11.70
2017-12-11T00:34:14.480Z,10.00
2017-12-11T00:35:14.386Z,11.40
2017-12-11T00:37:07.637Z,10.30
2017-12-11T00:38:07.562Z,8.80
2017-12-11T00:40:00.820Z,10.60
2017-12-11T00:41:00.729Z,11.80
2017-12-11T00:42:53.968Z,10.90
2017-12-11T00:43:53.927Z,10.50
2017-12-11T00:45:47.148Z,9.50
2017-12-11T00:46:47.058Z,10.60
2017-12-11T00:48:40.296Z,10.20
2017-12-11T00:49:40.220Z,10.10
2017-12-11T00:51:33.488Z,8.80
2017-12-11T00:52:33.395Z,9.00
2017-12-11T00:54:26.660Z,8.50
2017-12-11T00:55:26.567Z,9.10
2017-12-11T00:57:19.815Z,9.50
2017-12-11T00:58:19.742Z,9.40
2017-12-11T01:00:13.002Z,9.30
2017-12-11T01:01:12.907Z,8.90
2017-12-11T01:03:06.151Z,9.10
2017-12-11T01:04:06.078Z,9.80
2017-12-11T01:05:59.391Z,9.40
2017-12-11T01:06:59.298Z,10.60
2017-12-11T01:08:52.551Z,10.20
2017-12-11T01:09:52.476Z,9.60
2017-12-11T01:11:45.746Z,10.50
2017-12-11T01:12:45.651Z,10.80
2017-12-11T01:14:38.917Z,10.90
2017-12-11T01:15:38.824Z,10.70
2017-12-11T01:17:32.072Z,11.30
2017-12-11T01:18:31.998Z,12.00
2017-12-11T01:20:25.265Z,10.40
2017-12-11T01:21:25.172Z,10.60
2017-12-11T01:23:18.410Z,10.00
2017-12-11T01:24:18.336Z,9.50
2017-12-11T01:26:11.602Z,9.30
2017-12-11T01:27:11.511Z,8.40
2017-12-11T01:29:04.774Z,9.30
2017-12-11T01:30:04.678Z,9.10
2017-12-11T01:31:57.925Z,10.00
2017-12-11T01:32:57.852Z,9.50
2017-12-11T01:34:51.117Z,9.00
2017-12-11T01:35:51.025Z,9.80
2017-12-11T01:37:44.271Z,11.70
2017-12-11T01:38:44.200Z,10.10
2017-12-11T01:40:37.464Z,11.50
2017-12-11T01:41:37.372Z,10.70
2017-12-11T01:43:30.619Z,12.00
2017-12-11T01:44:30.546Z,11.50
2017-12-11T01:46:23.817Z,13.00
2017-12-11T01:47:23.724Z,11.50
2017-12-11T01:49:16.982Z,10.90
2017-12-11T01:50:16.887Z,11.00
2017-12-11T01:52:10.141Z,14.20
2017-12-11T01:53:10.067Z,13.00
2017-12-11T01:55:03.391Z,14.40
2017-12-11T01:56:03.297Z,12.50
2017-12-11T01:57:56.544Z,12.40
2017-12-11T01:58:56.470Z,14.00
2017-12-11T02:00:49.726Z,12.50
2017-12-11T02:01:49.632Z,13.10
2017-12-11T02:03:42.880Z,13.10
2017-12-11T02:04:42.806Z,11.10
2017-12-11T02:06:36.074Z,12.20
2017-12-11T02:07:35.981Z,12.80
2017-12-11T02:09:29.239Z,12.30
2017-12-11T02:10:29.148Z,12.10
2017-12-11T02:12:22.385Z,12.30
2017-12-11T02:13:22.309Z,11.20
2017-12-11T02:15:15.577Z,13.50
2017-12-11T02:16:15.483Z,9.70
2017-12-11T02:18:08.729Z,10.10
2017-12-11T02:19:08.658Z,10.60
2017-12-11T02:21:01.933Z,10.00
2017-12-11T02:22:01.832Z,11.20
2017-12-11T02:23:55.082Z,10.70
2017-12-11T02:24:55.006Z,10.80
2017-12-11T02:26:48.271Z,10.10
2017-12-11T02:27:48.178Z,9.70
2017-12-11T02:29:41.434Z,10.30
2017-12-11T02:30:41.343Z,10.60
2017-12-11T02:32:34.591Z,10.00
2017-12-11T02:33:34.521Z,10.30
2017-12-11T02:35:27.784Z,11.20
2017-12-11T02:36:27.690Z,10.60
2017-12-11T02:38:20.939Z,11.00
2017-12-11T02:39:20.864Z,12.00
2017-12-11T02:41:14.133Z,10.00
2017-12-11T02:42:14.037Z,9.60
2017-12-11T02:44:07.372Z,10.90
2017-12-11T02:45:07.299Z,9.80
2017-12-11T02:47:00.567Z,10.10
2017-12-11T02:48:00.471Z,10.20
2017-12-11T02:49:53.729Z,11.70
2017-12-11T02:50:53.637Z,10.90
2017-12-11T02:52:46.885Z,10.80
2017-12-11T02:53:46.811Z,11.00
2017-12-11T02:55:40.079Z,8.90
2017-12-11T02:56:40.012Z,9.50
2017-12-11T02:58:33.231Z,9.40
2017-12-11T02:59:33.158Z,10.30
2017-12-11T03:01:26.424Z,9.40
2017-12-11T03:02:26.332Z,9.40
2017-12-11T03:04:19.579Z,11.30
2017-12-11T03:05:19.504Z,9.50
2017-12-11T03:07:12.773Z,10.60
2017-12-11T03:08:12.678Z,10.70
2017-12-11T03:10:05.936Z,9.40
2017-12-11T03:11:05.842Z,9.90
2017-12-11T03:12:59.091Z,9.30
2017-12-11T03:13:59.018Z,9.30
2017-12-11T03:15:52.282Z,9.00
2017-12-11T03:16:52.189Z,8.30
2017-12-11T03:18:45.440Z,9.30
2017-12-11T03:19:45.366Z,10.10
2017-12-11T03:21:38.633Z,10.00
2017-12-11T03:22:38.539Z,9.40
2017-12-11T03:24:31.786Z,9.70
2017-12-11T03:25:31.712Z,10.00
2017-12-11T03:27:24.980Z,9.80
2017-12-11T03:28:24.888Z,11.00
2017-12-11T03:30:18.155Z,10.30
2017-12-11T03:31:18.062Z,10.20
2017-12-11T03:33:11.372Z,10.30
2017-12-11T03:34:11.304Z,10.40
2017-12-11T03:36:04.563Z,10.30
2017-12-11T03:37:04.470Z,12.10
2017-12-11T03:38:57.720Z,10.20
2017-12-11T03:39:57.647Z,10.10
2017-12-11T03:41:50.913Z,10.10
2017-12-11T03:42:50.821Z,10.00
2017-12-11T03:44:44.071Z,9.80
2017-12-11T03:45:43.995Z,10.70
2017-12-11T03:47:37.264Z,10.20
2017-12-11T03:48:37.168Z,9.40
2017-12-11T03:50:30.435Z,9.60
2017-12-11T03:51:30.343Z,10.50
2017-12-11T03:53:23.593Z,10.30
2017-12-11T03:54:23.517Z,9.60
2017-12-11T03:56:16.781Z,10.40
2017-12-11T03:57:16.687Z,10.70
2017-12-11T03:59:09.930Z,10.60
2017-12-11T04:00:09.856Z,11.10
2017-12-11T04:02:03.126Z,12.20
2017-12-11T04:03:03.032Z,11.00
2017-12-11T04:04:56.370Z,11.40
2017-12-11T04:05:56.296Z,11.40
2017-12-11T04:07:49.578Z,10.70
2017-12-11T04:08:49.486Z,9.80
2017-12-11T04:10:42.750Z,9.90
2017-12-11T04:11:42.658Z,10.70
2017-12-11T04:13:35.907Z,10.40
2017-12-11T04:14:35.828Z,10.70
2017-12-11T04:16:29.109Z,11.10
2017-12-11T04:17:29.018Z,9.70
2017-12-11T04:19:22.260Z,10.70
2017-12-11T04:20:22.185Z,10.90
2017-12-11T04:22:15.450Z,10.30
2017-12-11T04:23:15.357Z,10.40
2017-12-11T04:25:08.605Z,11.00
2017-12-11T04:26:08.531Z,10.90
2017-12-11T04:28:01.803Z,10.70
2017-12-11T04:29:01.708Z,11.80
2017-12-11T04:30:54.972Z,10.30
2017-12-11T04:31:54.880Z,11.50
2017-12-11T04:33:48.130Z,10.50
2017-12-11T04:34:48.061Z,10.70
2017-12-11T04:36:41.324Z,12.30
2017-12-11T04:37:41.231Z,10.60
2017-12-11T04:39:34.470Z,10.20
2017-12-11T04:40:34.398Z,10.70
2017-12-11T04:42:27.662Z,10.70
2017-12-11T04:43:27.570Z,10.50
2017-12-11T04:45:20.838Z,11.20
2017-12-11T04:46:20.746Z,10.00
2017-12-11T04:48:14.016Z,9.00
2017-12-11T04:49:13.921Z,9.60
2017-12-11T04:51:06.696Z,9.90
2017-12-11T04:52:06.605Z,10.40
2017-12-11T04:53:59.851Z,9.90
2017-12-11T04:54:59.777Z,10.50
2017-12-11T04:56:53.044Z,10.90
2017-12-11T04:57:52.952Z,9.50
2017-12-11T04:59:46.196Z,9.50
2017-12-11T05:00:46.118Z,10.10
2017-12-11T05:02:39.388Z,9.80
2017-12-11T05:03:39.295Z,10.10
2017-12-11T05:05:32.567Z,9.00
2017-12-11T05:06:32.474Z,9.20
2017-12-11T05:08:25.723Z,10.60
2017-12-11T05:09:25.650Z,10.00
2017-12-11T05:11:18.919Z,10.30
2017-12-11T05:12:18.828Z,8.80
2017-12-11T05:14:12.075Z,10.20
2017-12-11T05:15:12.000Z,11.80
2017-12-11T05:17:05.273Z,10.70
2017-12-11T05:18:05.182Z,12.00
2017-12-11T05:19:58.422Z,12.10
2017-12-11T05:20:58.349Z,11.30
2017-12-11T05:22:51.615Z,11.30
2017-12-11T05:23:51.529Z,12.40
2017-12-11T05:25:44.790Z,11.10
2017-12-11T05:26:44.697Z,11.60
2017-12-11T05:28:37.943Z,11.20
2017-12-11T05:29:37.872Z,15.10
2017-12-11T05:31:31.137Z,10.40
2017-12-11T05:32:31.046Z,12.00
2017-12-11T05:34:24.374Z,10.90
2017-12-11T05:35:24.299Z,11.10
2017-12-11T05:37:17.566Z,11.40
2017-12-11T05:38:17.474Z,10.80
2017-12-11T05:40:10.722Z,10.90
2017-12-11T05:41:10.662Z,11.70
2017-12-11T05:43:03.956Z,10.30
2017-12-11T05:44:03.822Z,10.10
2017-12-11T05:45:57.087Z,11.70
2017-12-11T05:46:56.994Z,11.10
2017-12-11T05:48:50.245Z,11.60
2017-12-11T05:49:50.169Z,10.80
2017-12-11T05:51:43.437Z,10.00
2017-12-11T05:52:43.344Z,11.00
2017-12-11T05:54:36.598Z,10.50
2017-12-11T05:55:36.518Z,10.20
2017-12-11T05:57:29.786Z,10.90
2017-12-11T05:58:29.695Z,11.50
2017-12-11T06:00:22.940Z,10.60
2017-12-11T06:01:22.867Z,11.30
2017-12-11T06:03:16.133Z,13.00
2017-12-11T06:04:16.040Z,11.80
2017-12-11T06:06:09.307Z,12.10
2017-12-11T06:07:09.213Z,12.50
2017-12-11T06:09:02.472Z,12.20
2017-12-11T06:10:02.399Z,13.20
2017-12-11T06:11:55.665Z,12.90
2017-12-11T06:12:55.573Z,11.80
2017-12-11T06:14:48.820Z,12.10
2017-12-11T06:15:48.747Z,12.10
2017-12-11T06:17:42.013Z,11.50
2017-12-11T06:18:41.921Z,12.00
2017-12-11T06:20:35.187Z,12.60
2017-12-11T06:21:35.092Z,11.80
2017-12-11T06:23:28.390Z,12.60
2017-12-11T06:24:28.295Z,12.60
2017-12-11T06:26:21.560Z,11.90
2017-12-11T06:27:21.470Z,13.10
2017-12-11T06:29:14.709Z,13.10
2017-12-11T06:30:14.633Z,13.60
2017-12-11T06:32:07.900Z,13.00
2017-12-11T06:33:07.808Z,11.90
2017-12-11T06:35:01.056Z,12.60
2017-12-11T06:36:01.029Z,13.10
2017-12-11T06:37:54.249Z,13.10
2017-12-11T06:38:54.153Z,13.60
2017-12-11T06:40:47.401Z,13.00
2017-12-11T06:41:47.328Z,12.30
2017-12-11T06:43:40.595Z,12.90
2017-12-11T06:44:40.501Z,13.50
2017-12-11T06:46:33.771Z,12.30
2017-12-11T06:47:33.684Z,11.20
2017-12-11T06:49:26.917Z,12.50
2017-12-11T06:50:26.842Z,12.60
2017-12-11T06:52:20.108Z,12.60
2017-12-11T06:53:20.016Z,12.60
2017-12-11T06:55:13.263Z,12.00
2017-12-11T06:56:13.190Z,11.10
2017-12-11T06:58:06.459Z,10.50
2017-12-11T06:59:06.363Z,10.70
2017-12-11T07:00:59.608Z,12.30
2017-12-11T07:01:59.535Z,11.40
2017-12-11T07:03:52.804Z,13.60
2017-12-11T07:04:52.707Z,11.50
2017-12-11T07:06:45.976Z,15.10
2017-12-11T07:07:45.881Z,14.00
2017-12-11T07:09:39.119Z,12.40
2017-12-11T07:10:39.042Z,12.20
2017-12-11T07:12:32.313Z,11.50
2017-12-11T07:13:32.219Z,10.90
2017-12-11T07:15:25.467Z,10.30
2017-12-11T07:16:25.394Z,11.40
2017-12-11T07:18:18.657Z,10.80
2017-12-11T07:19:18.564Z,12.20
2017-12-11T07:21:11.811Z,10.40
2017-12-11T07:22:11.743Z,10.50
2017-12-11T07:24:05.004Z,11.00
2017-12-11T07:25:04.908Z,10.40
2017-12-11T07:26:58.191Z,11.60
2017-12-11T07:27:58.097Z,11.00
2017-12-11T07:29:51.374Z,11.70
2017-12-11T07:30:51.298Z,11.30
2017-12-11T07:32:44.618Z,11.80
2017-12-11T07:33:44.524Z,12.30
2017-12-11T07:35:37.799Z,12.40
2017-12-11T07:36:37.686Z,11.80
2017-12-11T07:38:30.951Z,12.20
2017-12-11T07:39:30.858Z,11.50
2017-12-11T07:41:24.099Z,12.80
2017-12-11T07:42:24.020Z,12.80
2017-12-11T07:44:17.275Z,11.60
2017-12-11T07:45:17.184Z,12.60
2017-12-11T07:47:10.437Z,13.20
2017-12-11T07:48:10.342Z,12.80
2017-12-11T07:50:03.584Z,11.30
2017-12-11T07:51:03.512Z,13.00
2017-12-11T07:52:56.766Z,17.20
2017-12-11T07:53:56.671Z,12.60
2017-12-11T07:55:49.908Z,11.10
2017-12-11T07:56:49.840Z,12.10
2017-12-11T07:58:43.089Z,12.10
2017-12-11T07:59:42.987Z,13.70
2017-12-11T08:01:36.231Z,14.80
2017-12-11T08:02:36.157Z,11.00
2017-12-11T08:04:29.411Z,12.60
2017-12-11T08:05:29.320Z,12.60
2017-12-11T08:07:22.575Z,11.90
2017-12-11T08:08:22.480Z,12.00
2017-12-11T08:10:15.728Z,17.00
2017-12-11T08:11:15.654Z,15.90
2017-12-11T08:13:08.911Z,13.60
2017-12-11T08:14:08.818Z,11.50
2017-12-11T08:16:02.058Z,15.70
2017-12-11T08:17:01.982Z,18.20
2017-12-11T08:18:55.244Z,13.80
2017-12-11T08:19:55.143Z,15.00
2017-12-11T08:21:48.394Z,13.20
2017-12-11T08:22:48.316Z,12.80
2017-12-11T08:24:41.584Z,12.00
2017-12-11T08:25:41.488Z,13.90
2017-12-11T08:27:34.755Z,13.30
2017-12-11T08:28:34.661Z,13.60
2017-12-11T08:30:27.899Z,14.70
2017-12-11T08:31:27.825Z,19.40
2017-12-11T08:33:21.083Z,12.90
2017-12-11T08:34:20.986Z,11.10
2017-12-11T08:36:14.233Z,13.20
2017-12-11T08:37:14.161Z,14.30
2017-12-11T08:39:07.417Z,12.90
2017-12-11T08:40:07.323Z,12.30
2017-12-11T08:42:00.564Z,11.70
2017-12-11T08:43:00.486Z,12.30
2017-12-11T08:44:53.743Z,11.90
2017-12-11T08:45:53.648Z,11.10
2017-12-11T08:47:46.905Z,11.50
2017-12-11T08:48:46.814Z,13.00
2017-12-11T08:50:40.055Z,18.40
2017-12-11T08:51:39.974Z,12.70
2017-12-11T08:53:33.237Z,12.50
2017-12-11T08:54:33.142Z,12.60
2017-12-11T08:56:26.378Z,15.60
2017-12-11T08:57:26.303Z,12.70
2017-12-11T08:59:19.566Z,14.00
2017-12-11T09:00:19.466Z,12.80
2017-12-11T09:02:12.712Z,13.00
2017-12-11T09:03:12.692Z,14.20
2017-12-11T09:05:05.895Z,14.00
2017-12-11T09:06:05.801Z,13.50
2017-12-11T09:07:59.080Z,14.50
2017-12-11T09:08:58.962Z,14.00
2017-12-11T09:10:52.200Z,13.40
2017-12-11T09:11:52.123Z,14.00
2017-12-11T09:13:45.397Z,13.60
2017-12-11T09:14:45.301Z,14.50
2017-12-11T09:16:38.539Z,14.40
2017-12-11T09:17:38.464Z,15.10
2017-12-11T09:19:31.722Z,15.80
2017-12-11T09:20:31.627Z,14.00
2017-12-11T09:22:24.863Z,14.40
2017-12-11T09:23:24.788Z,12.50
2017-12-11T09:25:18.049Z,14.50
2017-12-11T09:26:17.951Z,13.90
2017-12-11T09:28:12.056Z,14.10
2017-12-11T09:29:11.962Z,16.50
2017-12-11T09:31:05.200Z,14.40
2017-12-11T09:32:05.124Z,15.90
2017-12-11T09:33:58.380Z,14.80
2017-12-11T09:34:58.287Z,14.90
2017-12-11T09:36:51.528Z,13.80
2017-12-11T09:37:51.451Z,13.90
2017-12-11T09:39:44.709Z,14.00
2017-12-11T09:40:44.616Z,15.40
2017-12-11T09:42:37.853Z,15.20
2017-12-11T09:43:37.777Z,16.90
2017-12-11T09:45:31.032Z,15.60
2017-12-11T09:46:30.941Z,15.90
2017-12-11T09:48:24.199Z,14.40
2017-12-11T09:49:24.105Z,16.10
2017-12-11T09:51:17.373Z,15.30
2017-12-11T09:52:17.299Z,16.00
2017-12-11T09:54:10.565Z,15.70
2017-12-11T09:55:10.471Z,15.90
2017-12-11T09:57:03.702Z,16.60
2017-12-11T09:58:03.645Z,16.00
2017-12-11T09:59:56.894Z,16.90
2017-12-11T10:00:56.795Z,16.80
2017-12-11T10:02:50.035Z,17.80
2017-12-11T10:03:49.958Z,16.60
2017-12-11T10:05:43.213Z,15.90
2017-12-11T10:06:43.121Z,16.40
2017-12-11T10:08:36.377Z,16.10
2017-12-11T10:09:36.285Z,17.20
2017-12-11T10:11:29.518Z,20.80
2017-12-11T10:12:29.447Z,15.40
2017-12-11T10:14:22.702Z,19.80
2017-12-11T10:15:22.606Z,20.10
2017-12-11T10:17:15.843Z,19.30
2017-12-11T10:18:15.770Z,19.10
2017-12-11T10:20:09.025Z,19.40
2017-12-11T10:21:08.930Z,19.40
2017-12-11T10:23:02.170Z,17.30
2017-12-11T10:24:02.093Z,19.10
2017-12-11T10:25:55.392Z,19.30
2017-12-11T10:26:55.299Z,21.30
2017-12-11T10:28:48.560Z,20.60
2017-12-11T10:29:48.459Z,21.90
2017-12-11T10:31:41.774Z,20.40
2017-12-11T10:32:41.634Z,19.80
2017-12-11T10:34:34.890Z,19.20
2017-12-11T10:35:34.795Z,19.20
2017-12-11T10:37:28.033Z,20.20
2017-12-11T10:38:27.956Z,20.60
2017-12-11T10:40:21.211Z,21.20
2017-12-11T10:41:21.117Z,21.30
2017-12-11T10:43:14.354Z,22.50
2017-12-11T10:44:14.278Z,22.90
2017-12-11T10:46:07.538Z,21.20
2017-12-11T10:47:07.439Z,21.50
2017-12-11T10:49:00.707Z,21.20
2017-12-11T10:50:00.611Z,22.60
2017-12-11T10:51:53.849Z,20.40
2017-12-11T10:52:53.771Z,22.30
2017-12-11T10:54:47.027Z,21.30
2017-12-11T10:55:46.934Z,21.80
2017-12-11T10:57:40.174Z,23.80
2017-12-11T10:58:40.098Z,21.70
2017-12-11T11:00:33.390Z,24.10
2017-12-11T11:01:33.306Z,24.00
2017-12-11T11:03:26.536Z,23.20
2017-12-11T11:04:26.461Z,23.60
2017-12-11T11:06:19.719Z,25.80
2017-12-11T11:07:19.621Z,25.50
2017-12-11T11:09:12.881Z,25.40
2017-12-11T11:10:12.782Z,23.90
2017-12-11T11:12:06.020Z,27.50
2017-12-11T11:13:05.944Z,27.00
2017-12-11T11:14:59.201Z,27.70
2017-12-11T11:15:59.105Z,25.00
2017-12-11T11:17:52.345Z,25.90
2017-12-11T11:18:52.268Z,27.60
2017-12-11T11:20:45.575Z,26.50
2017-12-11T11:21:45.443Z,26.70
2017-12-11T11:23:38.725Z,25.20
2017-12-11T11:24:38.615Z,26.60
2017-12-11T11:26:31.852Z,29.20
2017-12-11T11:27:31.776Z,27.90
2017-12-11T11:29:25.031Z,28.40
2017-12-11T11:30:24.947Z,30.40
2017-12-11T11:32:18.185Z,29.40
2017-12-11T11:33:18.110Z,31.70
2017-12-11T11:35:11.365Z,33.50
2017-12-11T11:36:11.271Z,27.50
2017-12-11T11:38:04.508Z,28.20
2017-12-11T11:39:04.431Z,26.90
2017-12-11T11:40:57.690Z,34.70
2017-12-11T11:41:57.590Z,36.00
2017-12-11T11:43:50.845Z,33.10
2017-12-11T11:44:50.750Z,34.00
2017-12-11T11:46:43.988Z,31.60
2017-12-11T11:47:43.912Z,34.30
2017-12-11T11:49:37.167Z,34.80
2017-12-11T11:50:37.076Z,33.50
2017-12-11T11:52:30.358Z,35.40
2017-12-11T11:53:30.227Z,39.30
2017-12-11T11:55:23.490Z,35.60
2017-12-11T11:56:23.396Z,35.00
2017-12-11T11:58:16.642Z,30.90
2017-12-11T11:59:16.566Z,34.40
2017-12-11T12:01:09.834Z,42.70
2017-12-11T12:02:09.739Z,40.90
2017-12-11T12:04:02.996Z,40.50
2017-12-11T12:05:02.900Z,42.20
2017-12-11T12:06:56.136Z,44.80
2017-12-11T12:07:56.060Z,48.20
2017-12-11T12:09:49.393Z,43.80
2017-12-11T12:10:49.298Z,46.60
2017-12-11T12:12:42.533Z,47.20
2017-12-11T12:13:42.458Z,49.60
2017-12-11T12:15:35.719Z,46.50
2017-12-11T12:16:35.616Z,42.80
2017-12-11T12:18:28.853Z,46.40
2017-12-11T12:19:28.782Z,46.80
2017-12-11T12:21:22.030Z,50.90
2017-12-11T12:22:21.935Z,48.80
2017-12-11T12:24:15.189Z,47.80
2017-12-11T12:25:15.094Z,46.10
2017-12-11T12:27:07.869Z,39.60
2017-12-11T12:28:07.791Z,41.10
2017-12-11T12:30:01.053Z,43.70
2017-12-11T12:31:00.952Z,46.10
2017-12-11T12:32:54.242Z,51.00
2017-12-11T12:33:54.120Z,47.60
2017-12-11T12:35:47.391Z,44.80
2017-12-11T12:36:47.297Z,47.80
2017-12-11T12:38:40.553Z,48.10
2017-12-11T12:39:40.478Z,49.70
2017-12-11T12:41:33.733Z,48.00
2017-12-11T12:42:33.637Z,50.70
2017-12-11T12:44:26.892Z,50.50
2017-12-11T12:45:26.797Z,50.80
2017-12-11T12:47:20.034Z,40.50
2017-12-11T12:48:19.958Z,46.40
2017-12-11T12:50:13.228Z,43.80
2017-12-11T12:51:13.129Z,46.10
2017-12-11T12:53:06.367Z,43.90
2017-12-11T12:54:06.292Z,46.60
2017-12-11T12:55:59.548Z,47.20
2017-12-11T12:56:59.454Z,48.90
2017-12-11T12:58:52.688Z,45.90
2017-12-11T12:59:52.614Z,46.00
2017-12-11T13:01:45.866Z,38.60
2017-12-11T13:02:45.771Z,39.90
2017-12-11T13:04:39.026Z,40.30
2017-12-11T13:05:38.938Z,37.90
2017-12-11T13:07:33.184Z,38.40
2017-12-11T13:08:33.091Z,38.00
2017-12-11T13:10:26.349Z,43.80
2017-12-11T13:11:26.252Z,39.00
2017-12-11T13:13:20.488Z,37.90
2017-12-11T13:14:20.411Z,38.00
2017-12-11T13:16:13.682Z,36.30
2017-12-11T13:17:13.589Z,39.20
2017-12-11T13:19:06.868Z,33.30
2017-12-11T13:20:06.748Z,37.90
2017-12-11T13:22:00.002Z,40.30
2017-12-11T13:22:59.909Z,40.00
2017-12-11T13:24:53.163Z,36.20
2017-12-11T13:25:53.068Z,35.20
2017-12-11T13:27:46.308Z,32.20
2017-12-11T13:28:46.229Z,33.70
2017-12-11T13:30:39.484Z,31.30
2017-12-11T13:31:39.390Z,34.40
2017-12-11T13:33:32.634Z,32.00
2017-12-11T13:34:32.562Z,36.30
2017-12-11T13:36:26.820Z,37.60
2017-12-11T13:37:26.724Z,33.60
2017-12-11T13:39:20.963Z,35.60
2017-12-11T13:40:20.886Z,33.60
2017-12-11T13:42:14.151Z,34.70
2017-12-11T13:43:14.052Z,38.80
2017-12-11T13:45:07.392Z,32.50
2017-12-11T13:46:07.296Z,29.60
2017-12-11T13:48:00.551Z,34.20
2017-12-11T13:49:00.476Z,34.70
2017-12-11T13:50:53.747Z,37.30
2017-12-11T13:51:53.632Z,37.50
2017-12-11T13:53:46.868Z,38.80
2017-12-11T13:54:46.791Z,35.60
2017-12-11T13:56:40.050Z,31.70
2017-12-11T13:57:39.955Z,33.30
2017-12-11T13:59:33.192Z,29.50
2017-12-11T14:00:33.111Z,31.50
2017-12-11T14:02:26.370Z,30.40
2017-12-11T14:03:26.267Z,33.40
2017-12-11T14:05:19.529Z,35.60
2017-12-11T14:06:19.433Z,35.80
2017-12-11T14:08:12.671Z,33.30
2017-12-11T14:09:12.593Z,35.20
2017-12-11T14:11:05.853Z,35.00
2017-12-11T14:12:05.754Z,33.20
2017-12-11T14:13:58.989Z,42.00
2017-12-11T14:14:58.913Z,39.30
2017-12-11T14:16:52.170Z,31.90
2017-12-11T14:17:52.073Z,35.10
2017-12-11T14:19:45.375Z,33.00
2017-12-11T14:20:45.300Z,31.00
2017-12-11T14:22:38.558Z,31.50
2017-12-11T14:23:38.465Z,30.30
2017-12-11T14:25:31.721Z,27.80
2017-12-11T14:26:31.624Z,27.50
2017-12-11T14:28:24.860Z,28.20
2017-12-11T14:29:24.786Z,25.80
2017-12-11T14:31:18.041Z,26.20
2017-12-11T14:32:17.949Z,27.70
2017-12-11T14:34:11.184Z,27.80
2017-12-11T14:35:11.108Z,25.70
2017-12-11T14:37:04.361Z,24.60
2017-12-11T14:38:04.268Z,26.50
2017-12-11T14:39:57.497Z,24.40
2017-12-11T14:40:57.421Z,21.30
2017-12-11T14:42:50.680Z,21.20
2017-12-11T14:43:50.587Z,21.50
2017-12-11T14:45:43.842Z,24.30
2017-12-11T14:46:43.747Z,24.70
2017-12-11T14:48:36.984Z,25.30
2017-12-11T14:49:36.909Z,26.80
2017-12-11T14:51:30.169Z,26.10
2017-12-11T14:52:30.069Z,26.10
2017-12-11T14:54:23.372Z,23.00
2017-12-11T14:55:23.296Z,21.70
2017-12-11T14:57:16.551Z,23.20
2017-12-11T14:58:16.457Z,24.20
2017-12-11T15:00:09.693Z,20.70
2017-12-11T15:01:09.617Z,19.90
2017-12-11T15:03:02.880Z,16.40
2017-12-11T15:04:02.779Z,19.80
2017-12-11T15:05:56.034Z,19.00
2017-12-11T15:06:55.939Z,18.30
2017-12-11T15:08:49.175Z,21.80
2017-12-11T15:09:49.098Z,21.50
2017-12-11T15:11:42.355Z,20.40
2017-12-11T15:12:42.262Z,21.60
2017-12-11T15:14:35.495Z,19.80
2017-12-11T15:15:35.420Z,19.50
2017-12-11T15:17:28.679Z,23.50
2017-12-11T15:18:28.584Z,22.10
2017-12-11T15:20:21.819Z,25.30
2017-12-11T15:21:21.744Z,25.20
2017-12-11T15:23:15.000Z,20.60
2017-12-11T15:24:14.904Z,23.50
2017-12-11T15:26:08.163Z,22.30
2017-12-11T15:27:08.066Z,19.90
2017-12-11T15:29:01.428Z,19.90
2017-12-11T15:30:01.297Z,22.70
2017-12-11T15:31:54.553Z,21.40
2017-12-11T15:32:54.458Z,21.90
2017-12-11T15:34:47.699Z,20.80
2017-12-11T15:35:47.622Z,17.40
2017-12-11T15:37:40.877Z,19.20
2017-12-11T15:38:40.784Z,19.20
2017-12-11T15:40:34.016Z,23.30
2017-12-11T15:41:33.942Z,21.90
2017-12-11T15:43:27.198Z,19.60
2017-12-11T15:44:27.104Z,18.70
2017-12-11T15:46:20.361Z,19.00
2017-12-11T15:47:20.268Z,19.70
2017-12-11T15:49:13.507Z,21.10
2017-12-11T15:50:13.432Z,24.30
2017-12-11T15:52:06.687Z,20.80
2017-12-11T15:53:06.594Z,20.40
2017-12-11T15:54:59.853Z,18.00
2017-12-11T15:55:59.756Z,19.20
2017-12-11T15:57:53.013Z,18.90
2017-12-11T15:58:52.919Z,20.50
2017-12-11T16:00:46.157Z,18.60
2017-12-11T16:01:46.079Z,19.20
2017-12-11T16:03:39.391Z,18.50
2017-12-11T16:04:39.299Z,20.00
2017-12-11T16:06:32.554Z,17.00
2017-12-11T16:07:32.460Z,19.10
2017-12-11T16:09:25.697Z,19.50
2017-12-11T16:10:25.624Z,20.60
2017-12-11T16:12:18.882Z,20.70
2017-12-11T16:13:18.791Z,22.50
2017-12-11T16:15:12.029Z,18.80
2017-12-11T16:16:11.950Z,19.20
2017-12-11T16:18:05.204Z,19.80
2017-12-11T16:19:05.113Z,20.10
2017-12-11T16:20:58.381Z,18.10
2017-12-11T16:21:58.296Z,19.40
2017-12-11T16:23:51.525Z,16.40
2017-12-11T16:24:51.460Z,17.60
2017-12-11T16:26:44.713Z,17.40
2017-12-11T16:27:44.621Z,17.60
2017-12-11T16:29:37.860Z,19.20
2017-12-11T16:30:37.781Z,20.70
2017-12-11T16:32:31.043Z,18.30
2017-12-11T16:33:30.945Z,20.80
2017-12-11T16:35:24.189Z,19.60
2017-12-11T16:36:24.112Z,20.40
2017-12-11T16:38:17.367Z,19.60
2017-12-11T16:39:17.274Z,22.60
2017-12-11T16:41:10.529Z,24.50
2017-12-11T16:42:10.435Z,23.70
2017-12-11T16:44:03.674Z,22.10
2017-12-11T16:45:03.605Z,22.90
2017-12-11T16:46:56.860Z,21.60
2017-12-11T16:47:56.763Z,21.20
2017-12-11T16:49:50.003Z,25.30
2017-12-11T16:50:49.927Z,22.30
2017-12-11T16:52:43.184Z,23.00
2017-12-11T16:53:43.094Z,20.10
2017-12-11T16:55:36.374Z,26.10
2017-12-11T16:56:36.299Z,25.80
2017-12-11T16:58:29.659Z,28.70
2017-12-11T16:59:29.564Z,26.80
2017-12-11T17:01:22.836Z,26.50
2017-12-11T17:02:22.774Z,32.80
2017-12-11T17:04:15.976Z,26.60
2017-12-11T17:05:15.902Z,24.20
2017-12-11T17:07:09.159Z,23.30
2017-12-11T17:08:09.064Z,23.70
2017-12-11T17:10:02.381Z,30.10
2017-12-11T17:11:02.305Z,27.80
2017-12-11T17:12:55.562Z,28.00
2017-12-11T17:13:55.468Z,28.20
2017-12-11T17:15:48.773Z,29.90
2017-12-11T17:16:48.631Z,26.50
2017-12-11T17:18:41.894Z,31.80
2017-12-11T17:19:41.797Z,36.50
2017-12-11T17:21:35.055Z,30.30
2017-12-11T17:22:34.960Z,33.40
2017-12-11T17:24:28.203Z,33.10
2017-12-11T17:25:28.128Z,32.50
2017-12-11T17:27:21.388Z,34.70
2017-12-11T17:28:21.296Z,31.70
2017-12-11T17:30:14.537Z,29.60
2017-12-11T17:31:14.467Z,28.10
2017-12-11T17:33:07.722Z,31.30
2017-12-11T17:34:07.630Z,32.60
2017-12-11T17:36:00.870Z,32.50
2017-12-11T17:37:00.803Z,32.70
2017-12-11T17:38:54.060Z,34.70
2017-12-11T17:39:53.968Z,34.40
2017-12-11T17:41:47.231Z,34.90
2017-12-11T17:42:47.129Z,31.40
2017-12-11T17:44:40.378Z,31.60
2017-12-11T17:45:40.309Z,32.40
2017-12-11T17:47:33.561Z,33.60
2017-12-11T17:48:33.469Z,29.80
2017-12-11T17:50:26.722Z,35.10
2017-12-11T17:51:26.647Z,37.30
2017-12-11T17:53:19.903Z,33.00
2017-12-11T17:54:19.810Z,33.00
2017-12-11T17:56:13.056Z,33.60
2017-12-11T17:57:12.977Z,34.70
2017-12-11T17:59:06.232Z,39.80
2017-12-11T18:00:06.139Z,42.40
2017-12-11T18:01:59.405Z,40.20
2017-12-11T18:02:59.314Z,35.40
2017-12-11T18:04:52.564Z,39.50
2017-12-11T18:05:52.489Z,39.10
2017-12-11T18:07:45.753Z,43.40
2017-12-11T18:08:45.668Z,41.20
2017-12-11T18:10:38.912Z,38.80
2017-12-11T18:11:38.839Z,38.40
2017-12-11T18:13:32.156Z,40.80
2017-12-11T18:14:32.012Z,37.70
2017-12-11T18:16:25.283Z,39.80
2017-12-11T18:17:25.208Z,37.40
2017-12-11T18:19:18.502Z,39.70
2017-12-11T18:20:18.374Z,39.20
2017-12-11T18:22:11.672Z,39.80
2017-12-11T18:23:11.585Z,40.50
2017-12-11T18:25:04.826Z,46.10
2017-12-11T18:26:04.752Z,45.30
2017-12-11T18:27:58.025Z,46.30
2017-12-11T18:28:57.931Z,46.60
2017-12-11T18:30:51.174Z,40.70
2017-12-11T18:31:51.101Z,41.70
2017-12-11T18:33:44.393Z,39.40
2017-12-11T18:34:44.298Z,36.50
2017-12-11T18:36:37.741Z,36.80
2017-12-11T18:37:37.667Z,39.30